sensor_id;sensor_type;location;lat;lon;timestamp;P1;durP1;ratioP1;P2;durP2;ratioP2
9821;SDS011;4950;46.042;14.472;2023-01-15T00:01:16;28.92;;;18.38;;
9821;SDS011;4950;46.042;14.472;2023-01-15T00:03:46;30.08;;;18.67;;
9821;SDS011;4950;46.042;14.472;2023-01-15T00:06:13;38.25;;;21.58;;
9821;SDS011;4950;46.042;14.472;2023-01-15T00:08:40;33.17;;;21.13;;
9821;SDS011;4950;46.042;14.472;2023-01-15T00:11:06;26.98;;;17.48;;
9821;SDS011;4950;46.042;14.472;2023-01-15T00:13:33;31.10;;;19.13;;
9821;SDS011;4950;46.042;14.472;2023-01-15T00:16:03;31.30;;;19.52;;
9821;SDS011;4950;46.042;14.472;2023-01-15T00:18:30;33.97;;;19.08;;
9821;SDS011;4950;46.042;14.472;2023-01-15T00:20:59;32.63;;;18.63;;
9821;SDS011;4950;46.042;14.472;2023-01-15T00:23:26;33.70;;;20.95;;
9821;SDS011;4950;46.042;14.472;2023-01-15T00:26:12;29.27;;;18.77;;
9821;SDS011;4950;46.042;14.472;2023-01-15T00:28:57;28.25;;;16.95;;
9821;SDS011;4950;46.042;14.472;2023-01-15T00:31:24;28.40;;;16.65;;
9821;SDS011;4950;46.042;14.472;2023-01-15T00:33:50;29.00;;;17.88;;
9821;SDS011;4950;46.042;14.472;2023-01-15T00:36:18;41.47;;;18.75;;
9821;SDS011;4950;46.042;14.472;2023-01-15T00:38:45;36.95;;;20.10;;
9821;SDS011;4950;46.042;14.472;2023-01-15T00:41:11;34.13;;;19.75;;
9821;SDS011;4950;46.042;14.472;2023-01-15T00:43:38;29.03;;;18.03;;
9821;SDS011;4950;46.042;14.472;2023-01-15T00:46:05;34.72;;;20.00;;
9821;SDS011;4950;46.042;14.472;2023-01-15T00:48:32;30.73;;;19.13;;
9821;SDS011;4950;46.042;14.472;2023-01-15T00:50:59;31.42;;;19.38;;
9821;SDS011;4950;46.042;14.472;2023-01-15T00:53:27;29.63;;;18.05;;
9821;SDS011;4950;46.042;14.472;2023-01-15T00:55:54;33.17;;;19.80;;
9821;SDS011;4950;46.042;14.472;2023-01-15T00:58:20;30.33;;;19.20;;
9821;SDS011;4950;46.042;14.472;2023-01-15T01:00:51;29.75;;;17.63;;
9821;SDS011;4950;46.042;14.472;2023-01-15T01:03:18;27.30;;;17.60;;
9821;SDS011;4950;46.042;14.472;2023-01-15T01:05:45;31.85;;;20.88;;
9821;SDS011;4950;46.042;14.472;2023-01-15T01:08:11;45.60;;;19.02;;
9821;SDS011;4950;46.042;14.472;2023-01-15T01:10:39;41.30;;;18.53;;
9821;SDS011;4950;46.042;14.472;2023-01-15T01:13:06;42.97;;;17.15;;
9821;SDS011;4950;46.042;14.472;2023-01-15T01:15:34;29.23;;;17.27;;
9821;SDS011;4950;46.042;14.472;2023-01-15T01:18:01;29.88;;;18.10;;
9821;SDS011;4950;46.042;14.472;2023-01-15T01:20:29;24.98;;;16.70;;
9821;SDS011;4950;46.042;14.472;2023-01-15T01:22:56;25.67;;;15.73;;
9821;SDS011;4950;46.042;14.472;2023-01-15T01:25:23;25.13;;;15.83;;
9821;SDS011;4950;46.042;14.472;2023-01-15T01:27:51;24.20;;;16.00;;
9821;SDS011;4950;46.042;14.472;2023-01-15T01:30:17;24.03;;;15.57;;
9821;SDS011;4950;46.042;14.472;2023-01-15T01:32:44;24.83;;;15.93;;
9821;SDS011;4950;46.042;14.472;2023-01-15T01:35:11;23.30;;;14.70;;
9821;SDS011;4950;46.042;14.472;2023-01-15T01:37:37;25.93;;;16.87;;
9821;SDS011;4950;46.042;14.472;2023-01-15T01:40:04;22.30;;;15.50;;
9821;SDS011;4950;46.042;14.472;2023-01-15T01:42:31;23.90;;;15.95;;
9821;SDS011;4950;46.042;14.472;2023-01-15T01:47:48;24.50;;;15.13;;
9821;SDS011;4950;46.042;14.472;2023-01-15T01:50:16;25.97;;;15.87;;
9821;SDS011;4950;46.042;14.472;2023-01-15T01:52:44;27.00;;;16.23;;
9821;SDS011;4950;46.042;14.472;2023-01-15T01:55:15;23.00;;;15.13;;
9821;SDS011;4950;46.042;14.472;2023-01-15T01:57:45;21.70;;;15.23;;
9821;SDS011;4950;46.042;14.472;2023-01-15T02:00:13;22.83;;;15.20;;
9821;SDS011;4950;46.042;14.472;2023-01-15T02:02:42;25.33;;;16.00;;
9821;SDS011;4950;46.042;14.472;2023-01-15T02:05:11;72.37;;;18.20;;
9821;SDS011;4950;46.042;14.472;2023-01-15T02:07:41;29.00;;;17.03;;
9821;SDS011;4950;46.042;14.472;2023-01-15T02:10:11;32.60;;;18.23;;
9821;SDS011;4950;46.042;14.472;2023-01-15T02:12:39;32.53;;;17.83;;
9821;SDS011;4950;46.042;14.472;2023-01-15T02:15:11;27.40;;;16.20;;
9821;SDS011;4950;46.042;14.472;2023-01-15T02:17:42;65.13;;;17.13;;
9821;SDS011;4950;46.042;14.472;2023-01-15T02:20:19;28.90;;;17.27;;
9821;SDS011;4950;46.042;14.472;2023-01-15T02:25:59;25.52;;;15.80;;
9821;SDS011;4950;46.042;14.472;2023-01-15T02:28:39;24.38;;;15.25;;
9821;SDS011;4950;46.042;14.472;2023-01-15T02:31:08;40.88;;;17.65;;
9821;SDS011;4950;46.042;14.472;2023-01-15T02:33:38;29.70;;;16.60;;
9821;SDS011;4950;46.042;14.472;2023-01-15T02:36:10;27.37;;;17.83;;
9821;SDS011;4950;46.042;14.472;2023-01-15T02:38:42;23.70;;;15.33;;
9821;SDS011;4950;46.042;14.472;2023-01-15T02:41:12;24.13;;;15.17;;
9821;SDS011;4950;46.042;14.472;2023-01-15T02:43:43;26.73;;;16.00;;
9821;SDS011;4950;46.042;14.472;2023-01-15T02:46:14;27.83;;;16.63;;
9821;SDS011;4950;46.042;14.472;2023-01-15T02:48:43;22.30;;;14.98;;
9821;SDS011;4950;46.042;14.472;2023-01-15T02:51:13;24.20;;;14.73;;
9821;SDS011;4950;46.042;14.472;2023-01-15T02:53:44;27.87;;;16.67;;
9821;SDS011;4950;46.042;14.472;2023-01-15T02:58:41;25.80;;;15.53;;
9821;SDS011;4950;46.042;14.472;2023-01-15T03:01:14;24.63;;;15.43;;
9821;SDS011;4950;46.042;14.472;2023-01-15T03:03:46;22.00;;;14.63;;
9821;SDS011;4950;46.042;14.472;2023-01-15T03:06:17;23.70;;;15.37;;
9821;SDS011;4950;46.042;14.472;2023-01-15T03:08:50;25.23;;;14.70;;
9821;SDS011;4950;46.042;14.472;2023-01-15T03:11:18;21.20;;;13.83;;
9821;SDS011;4950;46.042;14.472;2023-01-15T03:13:46;26.57;;;15.67;;
9821;SDS011;4950;46.042;14.472;2023-01-15T03:16:19;28.23;;;16.30;;
9821;SDS011;4950;46.042;14.472;2023-01-15T03:19:11;22.97;;;14.93;;
9821;SDS011;4950;46.042;14.472;2023-01-15T03:21:46;22.63;;;15.03;;
9821;SDS011;4950;46.042;14.472;2023-01-15T03:24:18;22.43;;;14.97;;
9821;SDS011;4950;46.042;14.472;2023-01-15T03:26:49;26.73;;;15.63;;
9821;SDS011;4950;46.042;14.472;2023-01-15T03:29:17;20.63;;;13.23;;
9821;SDS011;4950;46.042;14.472;2023-01-15T03:31:47;22.20;;;14.17;;
9821;SDS011;4950;46.042;14.472;2023-01-15T03:34:14;24.53;;;14.87;;
9821;SDS011;4950;46.042;14.472;2023-01-15T03:36:40;25.73;;;17.07;;
9821;SDS011;4950;46.042;14.472;2023-01-15T03:39:07;23.13;;;15.50;;
9821;SDS011;4950;46.042;14.472;2023-01-15T03:41:38;20.97;;;14.33;;
9821;SDS011;4950;46.042;14.472;2023-01-15T03:44:13;19.73;;;13.17;;
9821;SDS011;4950;46.042;14.472;2023-01-15T03:46:53;23.07;;;15.40;;
9821;SDS011;4950;46.042;14.472;2023-01-15T03:49:33;23.88;;;14.95;;
9821;SDS011;4950;46.042;14.472;2023-01-15T03:52:08;22.40;;;15.20;;
9821;SDS011;4950;46.042;14.472;2023-01-15T03:54:41;24.70;;;14.83;;
9821;SDS011;4950;46.042;14.472;2023-01-15T03:57:14;23.77;;;15.60;;
9821;SDS011;4950;46.042;14.472;2023-01-15T03:59:48;21.73;;;15.00;;
9821;SDS011;4950;46.042;14.472;2023-01-15T04:02:19;22.37;;;15.33;;
9821;SDS011;4950;46.042;14.472;2023-01-15T04:04:49;22.37;;;15.03;;
9821;SDS011;4950;46.042;14.472;2023-01-15T04:07:16;22.17;;;15.73;;
9821;SDS011;4950;46.042;14.472;2023-01-15T04:09:44;20.90;;;14.80;;
9821;SDS011;4950;46.042;14.472;2023-01-15T04:12:11;18.43;;;13.40;;
9821;SDS011;4950;46.042;14.472;2023-01-15T04:14:38;19.83;;;12.70;;
9821;SDS011;4950;46.042;14.472;2023-01-15T04:17:04;20.33;;;13.07;;
9821;SDS011;4950;46.042;14.472;2023-01-15T04:19:32;19.03;;;13.33;;
9821;SDS011;4950;46.042;14.472;2023-01-15T04:21:59;21.20;;;13.67;;
9821;SDS011;4950;46.042;14.472;2023-01-15T04:24:26;20.20;;;14.23;;
9821;SDS011;4950;46.042;14.472;2023-01-15T04:26:52;20.03;;;13.60;;
9821;SDS011;4950;46.042;14.472;2023-01-15T04:29:19;20.70;;;14.83;;
9821;SDS011;4950;46.042;14.472;2023-01-15T04:31:45;19.17;;;15.07;;
9821;SDS011;4950;46.042;14.472;2023-01-15T04:34:12;20.50;;;15.13;;
9821;SDS011;4950;46.042;14.472;2023-01-15T04:36:40;23.05;;;15.73;;
9821;SDS011;4950;46.042;14.472;2023-01-15T04:39:10;22.53;;;14.60;;
9821;SDS011;4950;46.042;14.472;2023-01-15T04:41:37;18.77;;;13.47;;
9821;SDS011;4950;46.042;14.472;2023-01-15T04:44:21;21.00;;;14.73;;
9821;SDS011;4950;46.042;14.472;2023-01-15T04:46:52;20.60;;;14.43;;
9821;SDS011;4950;46.042;14.472;2023-01-15T04:49:19;22.50;;;15.03;;
9821;SDS011;4950;46.042;14.472;2023-01-15T04:51:47;20.83;;;14.17;;
9821;SDS011;4950;46.042;14.472;2023-01-15T04:54:14;18.07;;;14.03;;
9821;SDS011;4950;46.042;14.472;2023-01-15T04:56:42;19.57;;;13.67;;
9821;SDS011;4950;46.042;14.472;2023-01-15T04:59:11;20.60;;;14.73;;
9821;SDS011;4950;46.042;14.472;2023-01-15T05:01:37;20.77;;;13.97;;
9821;SDS011;4950;46.042;14.472;2023-01-15T05:04:04;19.53;;;13.13;;
9821;SDS011;4950;46.042;14.472;2023-01-15T05:06:31;19.43;;;14.00;;
9821;SDS011;4950;46.042;14.472;2023-01-15T05:08:59;17.57;;;12.97;;
9821;SDS011;4950;46.042;14.472;2023-01-15T05:11:28;17.90;;;12.97;;
9821;SDS011;4950;46.042;14.472;2023-01-15T05:13:55;20.57;;;12.43;;
9821;SDS011;4950;46.042;14.472;2023-01-15T05:16:22;21.05;;;13.88;;
9821;SDS011;4950;46.042;14.472;2023-01-15T05:18:50;21.30;;;13.35;;
9821;SDS011;4950;46.042;14.472;2023-01-15T05:21:19;21.23;;;15.37;;
9821;SDS011;4950;46.042;14.472;2023-01-15T05:23:47;20.43;;;14.87;;
9821;SDS011;4950;46.042;14.472;2023-01-15T05:26:16;22.63;;;15.13;;
9821;SDS011;4950;46.042;14.472;2023-01-15T05:28:43;20.97;;;14.83;;
9821;SDS011;4950;46.042;14.472;2023-01-15T05:31:11;21.10;;;15.07;;
9821;SDS011;4950;46.042;14.472;2023-01-15T05:33:39;22.00;;;15.27;;
9821;SDS011;4950;46.042;14.472;2023-01-15T05:36:06;22.70;;;15.97;;
9821;SDS011;4950;46.042;14.472;2023-01-15T05:38:34;22.13;;;14.68;;
9821;SDS011;4950;46.042;14.472;2023-01-15T05:41:02;25.00;;;17.73;;
9821;SDS011;4950;46.042;14.472;2023-01-15T05:43:52;22.70;;;16.07;;
9821;SDS011;4950;46.042;14.472;2023-01-15T05:46:19;24.20;;;15.75;;
9821;SDS011;4950;46.042;14.472;2023-01-15T05:48:45;25.30;;;16.10;;
9821;SDS011;4950;46.042;14.472;2023-01-15T05:51:12;24.33;;;16.45;;
9821;SDS011;4950;46.042;14.472;2023-01-15T05:53:39;25.35;;;18.17;;
9821;SDS011;4950;46.042;14.472;2023-01-15T05:56:06;25.60;;;17.20;;
9821;SDS011;4950;46.042;14.472;2023-01-15T05:58:33;26.10;;;18.65;;
9821;SDS011;4950;46.042;14.472;2023-01-15T06:01:04;27.05;;;17.73;;
9821;SDS011;4950;46.042;14.472;2023-01-15T06:03:31;22.37;;;15.90;;
9821;SDS011;4950;46.042;14.472;2023-01-15T06:05:58;24.03;;;16.20;;
9821;SDS011;4950;46.042;14.472;2023-01-15T06:08:24;25.83;;;17.88;;
9821;SDS011;4950;46.042;14.472;2023-01-15T06:10:51;27.88;;;19.10;;
9821;SDS011;4950;46.042;14.472;2023-01-15T06:13:18;25.15;;;17.33;;
9821;SDS011;4950;46.042;14.472;2023-01-15T06:15:44;26.50;;;18.25;;
9821;SDS011;4950;46.042;14.472;2023-01-15T06:18:12;24.73;;;17.00;;
9821;SDS011;4950;46.042;14.472;2023-01-15T06:20:41;26.00;;;18.40;;
9821;SDS011;4950;46.042;14.472;2023-01-15T06:23:08;27.52;;;20.40;;
9821;SDS011;4950;46.042;14.472;2023-01-15T06:25:35;26.25;;;18.55;;
9821;SDS011;4950;46.042;14.472;2023-01-15T06:28:02;24.90;;;17.05;;
9821;SDS011;4950;46.042;14.472;2023-01-15T06:30:29;25.90;;;17.35;;
9821;SDS011;4950;46.042;14.472;2023-01-15T06:32:56;25.75;;;17.48;;
9821;SDS011;4950;46.042;14.472;2023-01-15T06:35:24;26.08;;;17.40;;
9821;SDS011;4950;46.042;14.472;2023-01-15T06:37:50;27.95;;;17.42;;
9821;SDS011;4950;46.042;14.472;2023-01-15T06:40:17;28.20;;;19.23;;
9821;SDS011;4950;46.042;14.472;2023-01-15T06:42:44;28.05;;;17.98;;
9821;SDS011;4950;46.042;14.472;2023-01-15T06:45:28;26.30;;;17.38;;
9821;SDS011;4950;46.042;14.472;2023-01-15T06:48:19;23.80;;;16.52;;
9821;SDS011;4950;46.042;14.472;2023-01-15T06:50:47;23.65;;;16.02;;
9821;SDS011;4950;46.042;14.472;2023-01-15T06:53:14;24.60;;;16.33;;
9821;SDS011;4950;46.042;14.472;2023-01-15T06:55:41;23.10;;;15.50;;
9821;SDS011;4950;46.042;14.472;2023-01-15T06:58:07;22.08;;;15.77;;
9821;SDS011;4950;46.042;14.472;2023-01-15T07:00:34;22.63;;;14.98;;
9821;SDS011;4950;46.042;14.472;2023-01-15T07:03:01;21.25;;;14.95;;
9821;SDS011;4950;46.042;14.472;2023-01-15T07:05:28;20.83;;;13.93;;
9821;SDS011;4950;46.042;14.472;2023-01-15T07:07:57;23.85;;;15.70;;
9821;SDS011;4950;46.042;14.472;2023-01-15T07:10:24;20.45;;;13.88;;
9821;SDS011;4950;46.042;14.472;2023-01-15T07:12:50;21.77;;;14.50;;
9821;SDS011;4950;46.042;14.472;2023-01-15T07:15:17;21.55;;;14.98;;
9821;SDS011;4950;46.042;14.472;2023-01-15T07:17:43;21.75;;;14.25;;
9821;SDS011;4950;46.042;14.472;2023-01-15T07:20:10;22.33;;;15.90;;
9821;SDS011;4950;46.042;14.472;2023-01-15T07:22:38;23.10;;;15.73;;
9821;SDS011;4950;46.042;14.472;2023-01-15T07:25:06;23.88;;;16.70;;
9821;SDS011;4950;46.042;14.472;2023-01-15T07:27:34;24.33;;;17.42;;
9821;SDS011;4950;46.042;14.472;2023-01-15T07:30:01;23.63;;;16.30;;
9821;SDS011;4950;46.042;14.472;2023-01-15T07:32:27;25.30;;;17.58;;
9821;SDS011;4950;46.042;14.472;2023-01-15T07:34:54;24.58;;;16.45;;
9821;SDS011;4950;46.042;14.472;2023-01-15T07:37:20;23.35;;;17.40;;
9821;SDS011;4950;46.042;14.472;2023-01-15T07:39:47;25.20;;;16.75;;
9821;SDS011;4950;46.042;14.472;2023-01-15T07:42:15;24.35;;;17.42;;
9821;SDS011;4950;46.042;14.472;2023-01-15T07:44:59;22.77;;;17.38;;
9821;SDS011;4950;46.042;14.472;2023-01-15T07:47:43;25.15;;;17.70;;
9821;SDS011;4950;46.042;14.472;2023-01-15T07:50:27;24.35;;;17.80;;
9821;SDS011;4950;46.042;14.472;2023-01-15T07:52:53;24.40;;;17.95;;
9821;SDS011;4950;46.042;14.472;2023-01-15T07:55:20;24.70;;;17.25;;
9821;SDS011;4950;46.042;14.472;2023-01-15T07:57:49;21.60;;;16.23;;
9821;SDS011;4950;46.042;14.472;2023-01-15T08:00:18;24.33;;;17.65;;
9821;SDS011;4950;46.042;14.472;2023-01-15T08:02:47;23.27;;;15.52;;
9821;SDS011;4950;46.042;14.472;2023-01-15T08:05:14;22.38;;;16.00;;
9821;SDS011;4950;46.042;14.472;2023-01-15T08:07:42;23.85;;;16.02;;
9821;SDS011;4950;46.042;14.472;2023-01-15T08:10:12;24.97;;;17.30;;
9821;SDS011;4950;46.042;14.472;2023-01-15T08:12:39;24.58;;;16.23;;
9821;SDS011;4950;46.042;14.472;2023-01-15T08:15:24;23.73;;;16.13;;
9821;SDS011;4950;46.042;14.472;2023-01-15T08:17:51;25.25;;;17.63;;
9821;SDS011;4950;46.042;14.472;2023-01-15T08:20:19;24.10;;;16.42;;
9821;SDS011;4950;46.042;14.472;2023-01-15T08:22:47;29.52;;;20.40;;
9821;SDS011;4950;46.042;14.472;2023-01-15T08:25:14;25.67;;;17.17;;
9821;SDS011;4950;46.042;14.472;2023-01-15T08:27:42;24.08;;;17.05;;
9821;SDS011;4950;46.042;14.472;2023-01-15T08:30:09;26.55;;;17.35;;
9821;SDS011;4950;46.042;14.472;2023-01-15T08:32:39;24.58;;;17.10;;
9821;SDS011;4950;46.042;14.472;2023-01-15T08:35:07;24.63;;;16.95;;
9821;SDS011;4950;46.042;14.472;2023-01-15T08:37:34;22.65;;;15.25;;
9821;SDS011;4950;46.042;14.472;2023-01-15T08:40:01;24.17;;;16.80;;
9821;SDS011;4950;46.042;14.472;2023-01-15T08:42:28;23.88;;;16.92;;
9821;SDS011;4950;46.042;14.472;2023-01-15T08:44:55;23.25;;;15.93;;
9821;SDS011;4950;46.042;14.472;2023-01-15T08:47:21;29.60;;;16.67;;
9821;SDS011;4950;46.042;14.472;2023-01-15T08:49:49;25.23;;;16.42;;
9821;SDS011;4950;46.042;14.472;2023-01-15T08:52:16;23.60;;;16.98;;
9821;SDS011;4950;46.042;14.472;2023-01-15T08:54:42;24.88;;;16.27;;
9821;SDS011;4950;46.042;14.472;2023-01-15T08:57:09;24.40;;;16.88;;
9821;SDS011;4950;46.042;14.472;2023-01-15T08:59:37;26.75;;;17.75;;
9821;SDS011;4950;46.042;14.472;2023-01-15T09:02:08;25.70;;;18.42;;
9821;SDS011;4950;46.042;14.472;2023-01-15T09:04:36;25.67;;;18.27;;
9821;SDS011;4950;46.042;14.472;2023-01-15T09:07:05;26.08;;;17.95;;
9821;SDS011;4950;46.042;14.472;2023-01-15T09:09:32;27.05;;;16.42;;
9821;SDS011;4950;46.042;14.472;2023-01-15T09:11:58;27.40;;;17.63;;
9821;SDS011;4950;46.042;14.472;2023-01-15T09:14:25;28.15;;;18.83;;
9821;SDS011;4950;46.042;14.472;2023-01-15T09:16:52;27.80;;;19.23;;
9821;SDS011;4950;46.042;14.472;2023-01-15T09:19:18;30.08;;;19.67;;
9821;SDS011;4950;46.042;14.472;2023-01-15T09:21:45;29.05;;;19.35;;
9821;SDS011;4950;46.042;14.472;2023-01-15T09:24:13;30.77;;;19.77;;
9821;SDS011;4950;46.042;14.472;2023-01-15T09:26:39;25.65;;;17.65;;
9821;SDS011;4950;46.042;14.472;2023-01-15T09:29:06;27.60;;;18.83;;
9821;SDS011;4950;46.042;14.472;2023-01-15T09:31:33;25.85;;;16.60;;
9821;SDS011;4950;46.042;14.472;2023-01-15T09:34:00;25.20;;;17.40;;
9821;SDS011;4950;46.042;14.472;2023-01-15T09:36:28;26.45;;;17.08;;
9821;SDS011;4950;46.042;14.472;2023-01-15T09:38:56;23.80;;;15.95;;
9821;SDS011;4950;46.042;14.472;2023-01-15T09:41:25;24.27;;;15.32;;
9821;SDS011;4950;46.042;14.472;2023-01-15T09:44:25;24.55;;;16.33;;
9821;SDS011;4950;46.042;14.472;2023-01-15T09:47:06;24.88;;;15.57;;
9821;SDS011;4950;46.042;14.472;2023-01-15T09:49:42;26.60;;;16.63;;
9821;SDS011;4950;46.042;14.472;2023-01-15T09:52:26;28.08;;;16.65;;
9821;SDS011;4950;46.042;14.472;2023-01-15T09:55:02;25.70;;;17.20;;
9821;SDS011;4950;46.042;14.472;2023-01-15T09:57:36;23.73;;;16.15;;
9821;SDS011;4950;46.042;14.472;2023-01-15T10:00:03;25.15;;;17.48;;
9821;SDS011;4950;46.042;14.472;2023-01-15T10:02:33;28.08;;;18.73;;
9821;SDS011;4950;46.042;14.472;2023-01-15T10:05:06;27.15;;;17.42;;
9821;SDS011;4950;46.042;14.472;2023-01-15T10:07:38;27.95;;;18.00;;
9821;SDS011;4950;46.042;14.472;2023-01-15T10:10:09;25.92;;;17.20;;
9821;SDS011;4950;46.042;14.472;2023-01-15T10:12:40;23.25;;;15.50;;
9821;SDS011;4950;46.042;14.472;2023-01-15T10:15:13;21.58;;;15.70;;
9821;SDS011;4950;46.042;14.472;2023-01-15T10:17:45;26.55;;;17.50;;
9821;SDS011;4950;46.042;14.472;2023-01-15T10:20:14;24.23;;;16.88;;
9821;SDS011;4950;46.042;14.472;2023-01-15T10:22:57;23.92;;;16.23;;
9821;SDS011;4950;46.042;14.472;2023-01-15T10:25:39;22.13;;;15.27;;
9821;SDS011;4950;46.042;14.472;2023-01-15T10:28:16;22.38;;;15.80;;
9821;SDS011;4950;46.042;14.472;2023-01-15T10:30:45;24.85;;;15.77;;
9821;SDS011;4950;46.042;14.472;2023-01-15T10:33:32;22.17;;;14.95;;
9821;SDS011;4950;46.042;14.472;2023-01-15T10:36:12;22.50;;;15.77;;
9821;SDS011;4950;46.042;14.472;2023-01-15T10:38:43;23.23;;;15.55;;
9821;SDS011;4950;46.042;14.472;2023-01-15T10:41:22;25.80;;;17.15;;
9821;SDS011;4950;46.042;14.472;2023-01-15T10:44:01;23.38;;;15.85;;
9821;SDS011;4950;46.042;14.472;2023-01-15T10:46:36;29.80;;;19.08;;
9821;SDS011;4950;46.042;14.472;2023-01-15T10:49:05;30.00;;;20.83;;
9821;SDS011;4950;46.042;14.472;2023-01-15T10:51:39;26.83;;;19.17;;
9821;SDS011;4950;46.042;14.472;2023-01-15T10:54:11;27.65;;;18.48;;
9821;SDS011;4950;46.042;14.472;2023-01-15T10:56:47;31.00;;;21.10;;
9821;SDS011;4950;46.042;14.472;2023-01-15T10:59:23;30.98;;;20.70;;
9821;SDS011;4950;46.042;14.472;2023-01-15T11:01:58;35.67;;;22.70;;
9821;SDS011;4950;46.042;14.472;2023-01-15T11:04:27;41.53;;;28.00;;
9821;SDS011;4950;46.042;14.472;2023-01-15T11:06:57;38.65;;;25.77;;
9821;SDS011;4950;46.042;14.472;2023-01-15T11:09:24;33.35;;;22.70;;
9821;SDS011;4950;46.042;14.472;2023-01-15T11:11:59;32.22;;;22.65;;
9821;SDS011;4950;46.042;14.472;2023-01-15T11:14:50;28.33;;;20.13;;
9821;SDS011;4950;46.042;14.472;2023-01-15T11:17:34;35.63;;;23.90;;
9821;SDS011;4950;46.042;14.472;2023-01-15T11:20:24;44.15;;;28.48;;
9821;SDS011;4950;46.042;14.472;2023-01-15T11:22:54;41.70;;;27.90;;
9821;SDS011;4950;46.042;14.472;2023-01-15T11:25:30;37.53;;;25.10;;
9821;SDS011;4950;46.042;14.472;2023-01-15T11:27:58;36.58;;;24.55;;
9821;SDS011;4950;46.042;14.472;2023-01-15T11:30:29;35.30;;;23.42;;
9821;SDS011;4950;46.042;14.472;2023-01-15T11:32:59;33.08;;;21.48;;
9821;SDS011;4950;46.042;14.472;2023-01-15T11:35:28;35.08;;;20.67;;
9821;SDS011;4950;46.042;14.472;2023-01-15T11:38:03;31.35;;;20.48;;
9821;SDS011;4950;46.042;14.472;2023-01-15T11:40:31;30.88;;;20.35;;
9821;SDS011;4950;46.042;14.472;2023-01-15T11:42:59;34.40;;;21.20;;
9821;SDS011;4950;46.042;14.472;2023-01-15T11:45:47;32.63;;;19.13;;
9821;SDS011;4950;46.042;14.472;2023-01-15T11:48:33;34.15;;;20.60;;
9821;SDS011;4950;46.042;14.472;2023-01-15T11:51:25;29.58;;;18.92;;
9821;SDS011;4950;46.042;14.472;2023-01-15T11:53:53;30.88;;;19.58;;
9821;SDS011;4950;46.042;14.472;2023-01-15T11:56:25;27.88;;;20.40;;
9821;SDS011;4950;46.042;14.472;2023-01-15T11:58:56;36.83;;;23.23;;
9821;SDS011;4950;46.042;14.472;2023-01-15T12:01:26;31.02;;;21.10;;
9821;SDS011;4950;46.042;14.472;2023-01-15T12:03:55;29.80;;;21.08;;
9821;SDS011;4950;46.042;14.472;2023-01-15T12:06:23;30.33;;;18.83;;
9821;SDS011;4950;46.042;14.472;2023-01-15T12:08:52;27.85;;;19.08;;
9821;SDS011;4950;46.042;14.472;2023-01-15T12:11:34;31.73;;;18.48;;
9821;SDS011;4950;46.042;14.472;2023-01-15T12:14:22;31.33;;;20.27;;
9821;SDS011;4950;46.042;14.472;2023-01-15T12:17:08;36.17;;;22.15;;
9821;SDS011;4950;46.042;14.472;2023-01-15T12:19:45;38.88;;;24.50;;
9821;SDS011;4950;46.042;14.472;2023-01-15T12:22:26;66.30;;;36.22;;
9821;SDS011;4950;46.042;14.472;2023-01-15T12:25:13;57.08;;;31.30;;
9821;SDS011;4950;46.042;14.472;2023-01-15T12:27:55;31.58;;;19.10;;
9821;SDS011;4950;46.042;14.472;2023-01-15T12:30:28;17.40;;;11.30;;
9821;SDS011;4950;46.042;14.472;2023-01-15T12:33:06;15.50;;;8.02;;
9821;SDS011;4950;46.042;14.472;2023-01-15T12:35:43;17.05;;;8.48;;
9821;SDS011;4950;46.042;14.472;2023-01-15T12:38:21;12.88;;;7.22;;
9821;SDS011;4950;46.042;14.472;2023-01-15T12:40:55;11.93;;;6.75;;
9821;SDS011;4950;46.042;14.472;2023-01-15T12:43:27;12.45;;;5.82;;
9821;SDS011;4950;46.042;14.472;2023-01-15T12:46:13;15.60;;;6.60;;
9821;SDS011;4950;46.042;14.472;2023-01-15T12:48:45;15.98;;;5.88;;
9821;SDS011;4950;46.042;14.472;2023-01-15T12:51:17;10.70;;;5.10;;
9821;SDS011;4950;46.042;14.472;2023-01-15T12:53:51;10.40;;;5.32;;
9821;SDS011;4950;46.042;14.472;2023-01-15T12:56:23;11.80;;;5.22;;
9821;SDS011;4950;46.042;14.472;2023-01-15T12:58:56;10.60;;;5.07;;
9821;SDS011;4950;46.042;14.472;2023-01-15T13:01:30;10.63;;;4.60;;
9821;SDS011;4950;46.042;14.472;2023-01-15T13:04:10;10.60;;;4.70;;
9821;SDS011;4950;46.042;14.472;2023-01-15T13:06:42;13.38;;;4.80;;
9821;SDS011;4950;46.042;14.472;2023-01-15T13:09:14;10.15;;;4.55;;
9821;SDS011;4950;46.042;14.472;2023-01-15T13:11:48;12.57;;;4.60;;
9821;SDS011;4950;46.042;14.472;2023-01-15T13:14:23;8.68;;;3.83;;
9821;SDS011;4950;46.042;14.472;2023-01-15T13:16:51;7.75;;;4.32;;
9821;SDS011;4950;46.042;14.472;2023-01-15T13:19:30;10.07;;;3.65;;
9821;SDS011;4950;46.042;14.472;2023-01-15T13:22:02;10.60;;;4.10;;
9821;SDS011;4950;46.042;14.472;2023-01-15T13:24:40;11.25;;;4.63;;
9821;SDS011;4950;46.042;14.472;2023-01-15T13:27:22;12.27;;;4.22;;
9821;SDS011;4950;46.042;14.472;2023-01-15T13:29:58;12.43;;;4.30;;
9821;SDS011;4950;46.042;14.472;2023-01-15T13:32:46;9.68;;;3.63;;
9821;SDS011;4950;46.042;14.472;2023-01-15T13:35:18;8.82;;;4.50;;
9821;SDS011;4950;46.042;14.472;2023-01-15T13:37:52;7.72;;;3.60;;
9821;SDS011;4950;46.042;14.472;2023-01-15T13:40:22;12.43;;;5.45;;
9821;SDS011;4950;46.042;14.472;2023-01-15T13:42:53;11.25;;;4.85;;
9821;SDS011;4950;46.042;14.472;2023-01-15T13:48:07;8.73;;;3.88;;
9821;SDS011;4950;46.042;14.472;2023-01-15T13:50:42;7.40;;;3.45;;
9821;SDS011;4950;46.042;14.472;2023-01-15T13:53:21;8.43;;;4.22;;
9821;SDS011;4950;46.042;14.472;2023-01-15T13:55:52;7.90;;;3.38;;
9821;SDS011;4950;46.042;14.472;2023-01-15T13:58:22;12.15;;;4.90;;
9821;SDS011;4950;46.042;14.472;2023-01-15T14:01:01;9.98;;;3.85;;
9821;SDS011;4950;46.042;14.472;2023-01-15T14:03:31;9.00;;;3.58;;
9821;SDS011;4950;46.042;14.472;2023-01-15T14:06:01;8.27;;;3.63;;
9821;SDS011;4950;46.042;14.472;2023-01-15T14:08:36;10.95;;;4.40;;
9821;SDS011;4950;46.042;14.472;2023-01-15T14:11:04;9.10;;;4.25;;
9821;SDS011;4950;46.042;14.472;2023-01-15T14:13:43;9.52;;;3.92;;
9821;SDS011;4950;46.042;14.472;2023-01-15T14:16:38;6.50;;;3.75;;
9821;SDS011;4950;46.042;14.472;2023-01-15T14:19:21;9.82;;;3.67;;
9821;SDS011;4950;46.042;14.472;2023-01-15T14:25:16;8.50;;;4.40;;
9821;SDS011;4950;46.042;14.472;2023-01-15T14:27:55;12.45;;;4.10;;
9821;SDS011;4950;46.042;14.472;2023-01-15T14:30:35;12.23;;;4.10;;
9821;SDS011;4950;46.042;14.472;2023-01-15T14:33:19;10.30;;;4.47;;
9821;SDS011;4950;46.042;14.472;2023-01-15T14:35:54;11.70;;;5.28;;
9821;SDS011;4950;46.042;14.472;2023-01-15T14:38:23;8.43;;;3.90;;
9821;SDS011;4950;46.042;14.472;2023-01-15T14:40:54;8.98;;;4.00;;
9821;SDS011;4950;46.042;14.472;2023-01-15T14:43:24;9.75;;;3.42;;
9821;SDS011;4950;46.042;14.472;2023-01-15T14:45:52;6.40;;;3.53;;
9821;SDS011;4950;46.042;14.472;2023-01-15T14:48:20;9.82;;;3.47;;
9821;SDS011;4950;46.042;14.472;2023-01-15T14:51:06;7.20;;;3.75;;
9821;SDS011;4950;46.042;14.472;2023-01-15T14:53:36;8.45;;;3.90;;
9821;SDS011;4950;46.042;14.472;2023-01-15T14:56:10;9.65;;;4.30;;
9821;SDS011;4950;46.042;14.472;2023-01-15T14:58:46;6.72;;;3.63;;
9821;SDS011;4950;46.042;14.472;2023-01-15T15:01:23;7.18;;;3.30;;
9821;SDS011;4950;46.042;14.472;2023-01-15T15:03:58;6.57;;;3.63;;
9821;SDS011;4950;46.042;14.472;2023-01-15T15:06:34;8.88;;;3.65;;
9821;SDS011;4950;46.042;14.472;2023-01-15T15:09:11;7.95;;;3.85;;
9821;SDS011;4950;46.042;14.472;2023-01-15T15:11:41;8.32;;;3.65;;
9821;SDS011;4950;46.042;14.472;2023-01-15T15:14:29;7.63;;;4.15;;
9821;SDS011;4950;46.042;14.472;2023-01-15T15:16:59;8.98;;;3.92;;